sensor_id;sensor_type;location;lat;lon;timestamp;P1;durP1;ratioP1;P2;durP2;ratioP2
77400;SDS011;74775;45.476;11.016;2024-02-15T00:02:25;16.30;;;9.60;;
77400;SDS011;74775;45.476;11.016;2024-02-15T00:04:52;17.20;;;10.10;;
77400;SDS011;74775;45.476;11.016;2024-02-15T00:07:19;19.40;;;10.40;;
77400;SDS011;74775;45.476;11.016;2024-02-15T00:09:49;20.60;;;10.70;;
77400;SDS011;74775;45.476;11.016;2024-02-15T00:12:16;17.00;;;10.70;;
77400;SDS011;74775;45.476;11.016;2024-02-15T00:14:46;18.30;;;11.10;;
77400;SDS011;74775;45.476;11.016;2024-02-15T00:17:13;22.00;;;13.80;;
77400;SDS011;74775;45.476;11.016;2024-02-15T00:19:40;23.40;;;13.40;;
77400;SDS011;74775;45.476;11.016;2024-02-15T00:22:09;24.30;;;15.20;;
77400;SDS011;74775;45.476;11.016;2024-02-15T00:24:37;26.50;;;15.60;;
77400;SDS011;74775;45.476;11.016;2024-02-15T00:27:05;34.60;;;19.90;;
77400;SDS011;74775;45.476;11.016;2024-02-15T00:29:32;31.80;;;18.30;;
77400;SDS011;74775;45.476;11.016;2024-02-15T00:32:01;30.70;;;18.40;;
77400;SDS011;74775;45.476;11.016;2024-02-15T00:34:31;33.00;;;19.10;;
77400;SDS011;74775;45.476;11.016;2024-02-15T00:36:59;30.40;;;18.50;;
77400;SDS011;74775;45.476;11.016;2024-02-15T00:39:27;29.20;;;17.80;;
77400;SDS011;74775;45.476;11.016;2024-02-15T00:41:57;29.80;;;17.60;;
77400;SDS011;74775;45.476;11.016;2024-02-15T00:44:24;29.30;;;16.30;;
77400;SDS011;74775;45.476;11.016;2024-02-15T00:46:51;26.30;;;15.70;;
77400;SDS011;74775;45.476;11.016;2024-02-15T00:49:18;22.00;;;14.00;;
77400;SDS011;74775;45.476;11.016;2024-02-15T00:51:49;24.20;;;16.20;;
77400;SDS011;74775;45.476;11.016;2024-02-15T00:54:16;26.90;;;16.00;;
77400;SDS011;74775;45.476;11.016;2024-02-15T00:56:43;32.80;;;17.60;;
77400;SDS011;74775;45.476;11.016;2024-02-15T00:59:10;29.70;;;17.50;;
77400;SDS011;74775;45.476;11.016;2024-02-15T01:01:37;30.50;;;19.80;;
77400;SDS011;74775;45.476;11.016;2024-02-15T01:04:04;30.50;;;18.70;;
77400;SDS011;74775;45.476;11.016;2024-02-15T01:06:32;29.40;;;17.80;;
77400;SDS011;74775;45.476;11.016;2024-02-15T01:09:00;29.80;;;18.70;;
77400;SDS011;74775;45.476;11.016;2024-02-15T01:11:30;29.70;;;18.60;;
77400;SDS011;74775;45.476;11.016;2024-02-15T01:14:04;29.50;;;18.60;;
77400;SDS011;74775;45.476;11.016;2024-02-15T01:16:31;30.70;;;18.10;;
77400;SDS011;74775;45.476;11.016;2024-02-15T01:18:58;34.90;;;20.90;;
77400;SDS011;74775;45.476;11.016;2024-02-15T01:21:25;29.80;;;19.60;;
77400;SDS011;74775;45.476;11.016;2024-02-15T01:23:52;33.60;;;20.40;;
77400;SDS011;74775;45.476;11.016;2024-02-15T01:26:20;33.20;;;19.40;;
77400;SDS011;74775;45.476;11.016;2024-02-15T01:28:49;32.50;;;20.00;;
77400;SDS011;74775;45.476;11.016;2024-02-15T01:31:18;28.40;;;18.90;;
77400;SDS011;74775;45.476;11.016;2024-02-15T01:33:45;33.10;;;19.10;;
77400;SDS011;74775;45.476;11.016;2024-02-15T01:36:15;32.80;;;18.70;;
77400;SDS011;74775;45.476;11.016;2024-02-15T01:38:43;29.30;;;18.10;;
77400;SDS011;74775;45.476;11.016;2024-02-15T01:41:12;29.30;;;17.90;;
77400;SDS011;74775;45.476;11.016;2024-02-15T01:43:43;30.70;;;18.70;;
77400;SDS011;74775;45.476;11.016;2024-02-15T01:46:11;33.50;;;19.70;;
77400;SDS011;74775;45.476;11.016;2024-02-15T01:48:39;33.70;;;20.30;;
77400;SDS011;74775;45.476;11.016;2024-02-15T01:53:34;30.30;;;18.20;;
77400;SDS011;74775;45.476;11.016;2024-02-15T01:56:02;31.10;;;17.50;;
77400;SDS011;74775;45.476;11.016;2024-02-15T01:58:29;31.80;;;18.50;;
77400;SDS011;74775;45.476;11.016;2024-02-15T02:00:59;28.70;;;17.50;;
77400;SDS011;74775;45.476;11.016;2024-02-15T02:03:27;33.30;;;19.40;;
77400;SDS011;74775;45.476;11.016;2024-02-15T02:05:54;31.60;;;20.00;;
77400;SDS011;74775;45.476;11.016;2024-02-15T02:08:22;33.00;;;21.00;;
77400;SDS011;74775;45.476;11.016;2024-02-15T02:10:49;37.10;;;21.90;;
77400;SDS011;74775;45.476;11.016;2024-02-15T02:13:16;35.90;;;22.30;;
77400;SDS011;74775;45.476;11.016;2024-02-15T02:15:43;37.10;;;23.50;;
77400;SDS011;74775;45.476;11.016;2024-02-15T02:18:10;38.70;;;22.30;;
77400;SDS011;74775;45.476;11.016;2024-02-15T02:20:37;35.60;;;21.40;;
77400;SDS011;74775;45.476;11.016;2024-02-15T02:25:42;36.40;;;21.10;;
77400;SDS011;74775;45.476;11.016;2024-02-15T02:28:09;38.30;;;22.50;;
77400;SDS011;74775;45.476;11.016;2024-02-15T02:30:37;34.60;;;21.30;;
77400;SDS011;74775;45.476;11.016;2024-02-15T02:33:13;40.20;;;23.40;;
77400;SDS011;74775;45.476;11.016;2024-02-15T02:35:49;39.20;;;23.30;;
77400;SDS011;74775;45.476;11.016;2024-02-15T02:38:17;42.50;;;23.60;;
77400;SDS011;74775;45.476;11.016;2024-02-15T02:40:44;37.00;;;23.20;;
77400;SDS011;74775;45.476;11.016;2024-02-15T02:43:11;36.10;;;22.40;;
77400;SDS011;74775;45.476;11.016;2024-02-15T02:45:38;36.10;;;21.90;;
77400;SDS011;74775;45.476;11.016;2024-02-15T02:48:05;35.40;;;21.40;;
77400;SDS011;74775;45.476;11.016;2024-02-15T02:50:33;38.20;;;21.90;;
77400;SDS011;74775;45.476;11.016;2024-02-15T02:53:01;36.20;;;22.20;;
77400;SDS011;74775;45.476;11.016;2024-02-15T02:55:28;40.00;;;24.50;;
77400;SDS011;74775;45.476;11.016;2024-02-15T02:57:54;43.50;;;24.60;;
77400;SDS011;74775;45.476;11.016;2024-02-15T03:00:22;45.10;;;24.00;;
77400;SDS011;74775;45.476;11.016;2024-02-15T03:02:49;41.70;;;25.10;;
77400;SDS011;74775;45.476;11.016;2024-02-15T03:05:17;39.80;;;23.80;;
77400;SDS011;74775;45.476;11.016;2024-02-15T03:07:48;37.20;;;21.90;;
77400;SDS011;74775;45.476;11.016;2024-02-15T03:10:15;39.60;;;23.50;;
77400;SDS011;74775;45.476;11.016;2024-02-15T03:12:42;39.90;;;24.00;;
77400;SDS011;74775;45.476;11.016;2024-02-15T03:15:15;39.10;;;23.60;;
77400;SDS011;74775;45.476;11.016;2024-02-15T03:17:46;40.40;;;23.70;;
77400;SDS011;74775;45.476;11.016;2024-02-15T03:20:14;48.70;;;26.20;;
77400;SDS011;74775;45.476;11.016;2024-02-15T03:22:53;44.80;;;25.60;;
77400;SDS011;74775;45.476;11.016;2024-02-15T03:25:20;42.20;;;25.00;;
77400;SDS011;74775;45.476;11.016;2024-02-15T03:27:51;40.90;;;24.70;;
77400;SDS011;74775;45.476;11.016;2024-02-15T03:30:22;39.20;;;22.90;;
77400;SDS011;74775;45.476;11.016;2024-02-15T03:32:53;38.90;;;22.30;;
77400;SDS011;74775;45.476;11.016;2024-02-15T03:35:21;38.30;;;22.50;;
77400;SDS011;74775;45.476;11.016;2024-02-15T03:37:49;35.00;;;21.50;;
77400;SDS011;74775;45.476;11.016;2024-02-15T03:40:20;35.00;;;20.70;;
77400;SDS011;74775;45.476;11.016;2024-02-15T03:42:48;36.10;;;20.50;;
77400;SDS011;74775;45.476;11.016;2024-02-15T03:45:17;36.50;;;21.60;;
77400;SDS011;74775;45.476;11.016;2024-02-15T03:47:44;35.20;;;22.50;;
77400;SDS011;74775;45.476;11.016;2024-02-15T03:50:13;37.60;;;22.50;;
77400;SDS011;74775;45.476;11.016;2024-02-15T03:52:41;35.00;;;21.30;;
77400;SDS011;74775;45.476;11.016;2024-02-15T03:55:10;33.40;;;20.40;;
77400;SDS011;74775;45.476;11.016;2024-02-15T03:57:38;36.80;;;21.00;;
77400;SDS011;74775;45.476;11.016;2024-02-15T04:00:10;35.10;;;19.70;;
77400;SDS011;74775;45.476;11.016;2024-02-15T04:02:40;37.10;;;23.20;;
77400;SDS011;74775;45.476;11.016;2024-02-15T04:05:09;34.90;;;20.60;;
77400;SDS011;74775;45.476;11.016;2024-02-15T04:07:38;37.20;;;21.00;;
77400;SDS011;74775;45.476;11.016;2024-02-15T04:10:05;32.10;;;18.30;;
77400;SDS011;74775;45.476;11.016;2024-02-15T04:12:33;36.20;;;20.60;;
77400;SDS011;74775;45.476;11.016;2024-02-15T04:15:00;33.80;;;20.30;;
77400;SDS011;74775;45.476;11.016;2024-02-15T04:17:32;31.20;;;19.20;;
77400;SDS011;74775;45.476;11.016;2024-02-15T04:20:02;30.40;;;18.60;;
77400;SDS011;74775;45.476;11.016;2024-02-15T04:22:31;34.90;;;19.20;;
77400;SDS011;74775;45.476;11.016;2024-02-15T04:25:07;31.40;;;19.00;;
77400;SDS011;74775;45.476;11.016;2024-02-15T04:27:37;33.50;;;19.70;;
77400;SDS011;74775;45.476;11.016;2024-02-15T04:30:06;36.60;;;19.50;;
77400;SDS011;74775;45.476;11.016;2024-02-15T04:32:37;34.50;;;21.20;;
77400;SDS011;74775;45.476;11.016;2024-02-15T04:35:05;34.30;;;21.10;;
77400;SDS011;74775;45.476;11.016;2024-02-15T04:37:36;36.10;;;19.70;;
77400;SDS011;74775;45.476;11.016;2024-02-15T04:40:04;32.40;;;19.60;;
77400;SDS011;74775;45.476;11.016;2024-02-15T04:42:36;29.30;;;18.30;;
77400;SDS011;74775;45.476;11.016;2024-02-15T04:45:08;32.10;;;19.40;;
77400;SDS011;74775;45.476;11.016;2024-02-15T04:47:38;33.00;;;19.50;;
77400;SDS011;74775;45.476;11.016;2024-02-15T04:50:07;29.50;;;17.80;;
77400;SDS011;74775;45.476;11.016;2024-02-15T04:52:36;31.60;;;18.50;;
77400;SDS011;74775;45.476;11.016;2024-02-15T04:55:03;30.50;;;17.40;;
77400;SDS011;74775;45.476;11.016;2024-02-15T04:57:33;33.50;;;19.50;;
77400;SDS011;74775;45.476;11.016;2024-02-15T05:00:04;35.50;;;20.30;;
77400;SDS011;74775;45.476;11.016;2024-02-15T05:02:38;32.50;;;18.90;;
77400;SDS011;74775;45.476;11.016;2024-02-15T05:05:11;33.40;;;19.10;;
77400;SDS011;74775;45.476;11.016;2024-02-15T05:07:41;33.20;;;19.20;;
77400;SDS011;74775;45.476;11.016;2024-02-15T05:10:09;34.30;;;20.40;;
77400;SDS011;74775;45.476;11.016;2024-02-15T05:12:42;34.70;;;20.30;;
77400;SDS011;74775;45.476;11.016;2024-02-15T05:15:09;36.20;;;20.70;;
77400;SDS011;74775;45.476;11.016;2024-02-15T05:20:09;30.90;;;18.40;;
77400;SDS011;74775;45.476;11.016;2024-02-15T05:22:41;31.90;;;17.80;;
77400;SDS011;74775;45.476;11.016;2024-02-15T05:25:17;30.50;;;17.80;;
77400;SDS011;74775;45.476;11.016;2024-02-15T05:27:51;32.50;;;18.90;;
77400;SDS011;74775;45.476;11.016;2024-02-15T05:30:22;31.20;;;18.20;;
77400;SDS011;74775;45.476;11.016;2024-02-15T05:32:50;29.70;;;17.50;;
77400;SDS011;74775;45.476;11.016;2024-02-15T05:35:19;32.70;;;19.40;;
77400;SDS011;74775;45.476;11.016;2024-02-15T05:37:46;33.50;;;19.50;;
77400;SDS011;74775;45.476;11.016;2024-02-15T05:40:13;31.40;;;18.50;;
77400;SDS011;74775;45.476;11.016;2024-02-15T05:42:42;31.50;;;18.60;;
77400;SDS011;74775;45.476;11.016;2024-02-15T05:47:52;32.10;;;19.20;;
77400;SDS011;74775;45.476;11.016;2024-02-15T05:50:20;30.00;;;18.30;;
77400;SDS011;74775;45.476;11.016;2024-02-15T05:52:48;35.50;;;21.10;;
77400;SDS011;74775;45.476;11.016;2024-02-15T05:55:15;31.40;;;18.00;;
77400;SDS011;74775;45.476;11.016;2024-02-15T05:57:45;31.90;;;18.10;;
77400;SDS011;74775;45.476;11.016;2024-02-15T06:00:13;34.10;;;20.60;;
77400;SDS011;74775;45.476;11.016;2024-02-15T06:02:49;32.40;;;18.60;;
77400;SDS011;74775;45.476;11.016;2024-02-15T06:05:17;30.00;;;18.00;;
77400;SDS011;74775;45.476;11.016;2024-02-15T06:07:45;28.50;;;17.90;;
77400;SDS011;74775;45.476;11.016;2024-02-15T06:10:14;31.70;;;19.40;;
77400;SDS011;74775;45.476;11.016;2024-02-15T06:12:42;34.80;;;18.40;;
77400;SDS011;74775;45.476;11.016;2024-02-15T06:15:10;32.40;;;19.30;;
77400;SDS011;74775;45.476;11.016;2024-02-15T06:17:43;31.10;;;17.90;;
77400;SDS011;74775;45.476;11.016;2024-02-15T06:20:14;31.00;;;18.80;;
77400;SDS011;74775;45.476;11.016;2024-02-15T06:22:41;34.80;;;19.70;;
77400;SDS011;74775;45.476;11.016;2024-02-15T06:25:09;28.40;;;17.70;;
77400;SDS011;74775;45.476;11.016;2024-02-15T06:27:37;36.10;;;19.20;;
77400;SDS011;74775;45.476;11.016;2024-02-15T06:30:08;31.10;;;17.20;;
77400;SDS011;74775;45.476;11.016;2024-02-15T06:32:55;28.70;;;17.00;;
77400;SDS011;74775;45.476;11.016;2024-02-15T06:35:41;29.50;;;17.60;;
77400;SDS011;74775;45.476;11.016;2024-02-15T06:38:27;28.10;;;16.80;;
77400;SDS011;74775;45.476;11.016;2024-02-15T06:41:13;27.70;;;16.30;;
77400;SDS011;74775;45.476;11.016;2024-02-15T06:43:42;28.00;;;17.40;;
77400;SDS011;74775;45.476;11.016;2024-02-15T06:46:12;29.20;;;16.30;;
77400;SDS011;74775;45.476;11.016;2024-02-15T06:48:43;29.70;;;17.40;;
77400;SDS011;74775;45.476;11.016;2024-02-15T06:51:12;29.40;;;16.70;;
77400;SDS011;74775;45.476;11.016;2024-02-15T06:53:42;26.40;;;13.90;;
77400;SDS011;74775;45.476;11.016;2024-02-15T06:56:10;25.10;;;13.30;;
77400;SDS011;74775;45.476;11.016;2024-02-15T06:58:38;26.60;;;14.40;;
77400;SDS011;74775;45.476;11.016;2024-02-15T07:01:07;22.70;;;14.00;;
77400;SDS011;74775;45.476;11.016;2024-02-15T07:03:34;24.10;;;14.10;;
77400;SDS011;74775;45.476;11.016;2024-02-15T07:06:02;28.10;;;14.00;;
77400;SDS011;74775;45.476;11.016;2024-02-15T07:08:31;25.50;;;13.90;;
77400;SDS011;74775;45.476;11.016;2024-02-15T07:10:58;23.80;;;13.70;;
77400;SDS011;74775;45.476;11.016;2024-02-15T07:13:26;23.40;;;13.60;;
77400;SDS011;74775;45.476;11.016;2024-02-15T07:15:54;21.50;;;12.00;;
77400;SDS011;74775;45.476;11.016;2024-02-15T07:18:20;22.50;;;12.80;;
77400;SDS011;74775;45.476;11.016;2024-02-15T07:20:54;21.70;;;12.20;;
77400;SDS011;74775;45.476;11.016;2024-02-15T07:23:23;24.30;;;13.30;;
77400;SDS011;74775;45.476;11.016;2024-02-15T07:25:52;23.10;;;11.60;;
77400;SDS011;74775;45.476;11.016;2024-02-15T07:28:20;22.40;;;12.30;;
77400;SDS011;74775;45.476;11.016;2024-02-15T07:30:48;25.60;;;12.30;;
77400;SDS011;74775;45.476;11.016;2024-02-15T07:33:17;21.30;;;12.50;;
77400;SDS011;74775;45.476;11.016;2024-02-15T07:35:44;22.20;;;12.50;;
77400;SDS011;74775;45.476;11.016;2024-02-15T07:38:12;22.60;;;12.30;;
77400;SDS011;74775;45.476;11.016;2024-02-15T07:40:39;18.90;;;11.10;;
77400;SDS011;74775;45.476;11.016;2024-02-15T07:43:06;18.80;;;10.60;;
77400;SDS011;74775;45.476;11.016;2024-02-15T07:45:33;22.70;;;11.10;;
77400;SDS011;74775;45.476;11.016;2024-02-15T07:48:03;20.40;;;10.20;;
77400;SDS011;74775;45.476;11.016;2024-02-15T07:50:31;18.90;;;10.40;;
77400;SDS011;74775;45.476;11.016;2024-02-15T07:52:59;16.80;;;10.20;;
77400;SDS011;74775;45.476;11.016;2024-02-15T07:55:25;19.10;;;10.50;;
77400;SDS011;74775;45.476;11.016;2024-02-15T07:57:53;19.50;;;10.50;;
77400;SDS011;74775;45.476;11.016;2024-02-15T08:00:20;26.30;;;12.60;;
77400;SDS011;74775;45.476;11.016;2024-02-15T08:02:47;25.80;;;12.50;;
77400;SDS011;74775;45.476;11.016;2024-02-15T08:05:14;25.80;;;12.80;;
77400;SDS011;74775;45.476;11.016;2024-02-15T08:07:42;23.40;;;11.80;;
77400;SDS011;74775;45.476;11.016;2024-02-15T08:10:11;25.30;;;13.70;;
77400;SDS011;74775;45.476;11.016;2024-02-15T08:12:42;29.40;;;15.20;;
77400;SDS011;74775;45.476;11.016;2024-02-15T08:15:09;22.90;;;12.70;;
77400;SDS011;74775;45.476;11.016;2024-02-15T08:17:40;26.20;;;12.70;;
77400;SDS011;74775;45.476;11.016;2024-02-15T08:20:10;21.60;;;12.60;;
77400;SDS011;74775;45.476;11.016;2024-02-15T08:22:38;24.10;;;13.00;;
77400;SDS011;74775;45.476;11.016;2024-02-15T08:25:06;21.20;;;12.80;;
77400;SDS011;74775;45.476;11.016;2024-02-15T08:27:37;23.00;;;13.30;;
77400;SDS011;74775;45.476;11.016;2024-02-15T08:30:09;24.90;;;14.00;;
77400;SDS011;74775;45.476;11.016;2024-02-15T08:32:38;26.60;;;14.00;;
77400;SDS011;74775;45.476;11.016;2024-02-15T08:35:06;25.80;;;15.40;;
77400;SDS011;74775;45.476;11.016;2024-02-15T08:37:35;25.40;;;15.00;;
77400;SDS011;74775;45.476;11.016;2024-02-15T08:40:03;28.90;;;16.90;;
77400;SDS011;74775;45.476;11.016;2024-02-15T08:42:45;28.40;;;16.90;;
77400;SDS011;74775;45.476;11.016;2024-02-15T08:45:12;28.30;;;16.90;;
77400;SDS011;74775;45.476;11.016;2024-02-15T08:47:40;27.20;;;16.70;;
77400;SDS011;74775;45.476;11.016;2024-02-15T08:50:08;29.70;;;17.20;;
77400;SDS011;74775;45.476;11.016;2024-02-15T08:52:37;34.70;;;18.50;;
77400;SDS011;74775;45.476;11.016;2024-02-15T08:55:05;32.70;;;18.90;;
77400;SDS011;74775;45.476;11.016;2024-02-15T08:57:33;32.40;;;18.80;;
77400;SDS011;74775;45.476;11.016;2024-02-15T09:00:04;34.10;;;19.30;;
77400;SDS011;74775;45.476;11.016;2024-02-15T09:02:41;32.30;;;20.20;;
77400;SDS011;74775;45.476;11.016;2024-02-15T09:05:14;39.20;;;21.90;;
77400;SDS011;74775;45.476;11.016;2024-02-15T09:07:41;38.40;;;22.70;;
77400;SDS011;74775;45.476;11.016;2024-02-15T09:10:10;42.40;;;23.10;;
77400;SDS011;74775;45.476;11.016;2024-02-15T09:12:37;39.50;;;23.30;;
77400;SDS011;74775;45.476;11.016;2024-02-15T09:15:07;48.70;;;28.30;;
77400;SDS011;74775;45.476;11.016;2024-02-15T09:17:35;49.60;;;30.10;;
77400;SDS011;74775;45.476;11.016;2024-02-15T09:20:07;49.70;;;29.30;;
77400;SDS011;74775;45.476;11.016;2024-02-15T09:22:48;49.70;;;27.40;;
77400;SDS011;74775;45.476;11.016;2024-02-15T09:25:16;46.00;;;27.70;;
77400;SDS011;74775;45.476;11.016;2024-02-15T09:27:43;49.90;;;28.50;;
77400;SDS011;74775;45.476;11.016;2024-02-15T09:30:12;47.60;;;27.00;;
77400;SDS011;74775;45.476;11.016;2024-02-15T09:32:40;45.00;;;26.10;;
77400;SDS011;74775;45.476;11.016;2024-02-15T09:35:09;44.90;;;25.90;;
77400;SDS011;74775;45.476;11.016;2024-02-15T09:37:42;47.40;;;27.90;;
77400;SDS011;74775;45.476;11.016;2024-02-15T09:40:11;42.70;;;25.30;;
77400;SDS011;74775;45.476;11.016;2024-02-15T09:42:39;45.40;;;25.70;;
77400;SDS011;74775;45.476;11.016;2024-02-15T09:45:07;45.50;;;25.40;;
77400;SDS011;74775;45.476;11.016;2024-02-15T09:47:38;43.80;;;25.60;;
77400;SDS011;74775;45.476;11.016;2024-02-15T09:50:09;44.40;;;28.50;;
77400;SDS011;74775;45.476;11.016;2024-02-15T09:52:49;51.60;;;28.50;;
77400;SDS011;74775;45.476;11.016;2024-02-15T09:55:17;48.70;;;27.80;;
77400;SDS011;74775;45.476;11.016;2024-02-15T09:57:45;48.70;;;27.60;;
77400;SDS011;74775;45.476;11.016;2024-02-15T10:00:13;45.20;;;27.00;;
77400;SDS011;74775;45.476;11.016;2024-02-15T10:02:43;44.80;;;26.80;;
77400;SDS011;74775;45.476;11.016;2024-02-15T10:05:11;46.30;;;26.70;;
77400;SDS011;74775;45.476;11.016;2024-02-15T10:07:39;46.90;;;27.10;;
77400;SDS011;74775;45.476;11.016;2024-02-15T10:10:17;47.40;;;26.80;;
77400;SDS011;74775;45.476;11.016;2024-02-15T10:12:50;47.90;;;28.20;;
77400;SDS011;74775;45.476;11.016;2024-02-15T10:15:31;47.40;;;26.80;;
77400;SDS011;74775;45.476;11.016;2024-02-15T10:18:09;54.20;;;29.10;;
77400;SDS011;74775;45.476;11.016;2024-02-15T10:20:39;47.20;;;27.00;;
77400;SDS011;74775;45.476;11.016;2024-02-15T10:23:12;46.60;;;26.50;;
77400;SDS011;74775;45.476;11.016;2024-02-15T10:25:44;45.00;;;26.50;;
77400;SDS011;74775;45.476;11.016;2024-02-15T10:28:12;46.00;;;26.40;;
77400;SDS011;74775;45.476;11.016;2024-02-15T10:30:43;47.80;;;28.40;;
77400;SDS011;74775;45.476;11.016;2024-02-15T10:33:19;48.60;;;27.40;;
77400;SDS011;74775;45.476;11.016;2024-02-15T10:36:04;58.80;;;30.80;;
77400;SDS011;74775;45.476;11.016;2024-02-15T10:38:33;51.80;;;29.50;;
77400;SDS011;74775;45.476;11.016;2024-02-15T10:41:04;44.10;;;27.10;;
77400;SDS011;74775;45.476;11.016;2024-02-15T10:43:34;45.10;;;27.70;;
77400;SDS011;74775;45.476;11.016;2024-02-15T10:46:04;45.00;;;26.70;;
77400;SDS011;74775;45.476;11.016;2024-02-15T10:48:31;45.00;;;27.30;;
77400;SDS011;74775;45.476;11.016;2024-02-15T10:50:59;44.30;;;27.20;;
77400;SDS011;74775;45.476;11.016;2024-02-15T10:56:05;44.60;;;26.90;;
77400;SDS011;74775;45.476;11.016;2024-02-15T10:58:56;42.50;;;26.80;;
77400;SDS011;74775;45.476;11.016;2024-02-15T11:01:27;40.70;;;26.80;;
77400;SDS011;74775;45.476;11.016;2024-02-15T11:03:59;45.20;;;26.90;;
77400;SDS011;74775;45.476;11.016;2024-02-15T11:06:27;42.80;;;27.00;;
77400;SDS011;74775;45.476;11.016;2024-02-15T11:08:56;45.20;;;27.30;;
77400;SDS011;74775;45.476;11.016;2024-02-15T11:11:24;44.10;;;28.70;;
77400;SDS011;74775;45.476;11.016;2024-02-15T11:16:58;45.40;;;27.60;;
77400;SDS011;74775;45.476;11.016;2024-02-15T11:22:10;45.50;;;26.00;;
77400;SDS011;74775;45.476;11.016;2024-02-15T11:24:45;41.60;;;25.10;;
77400;SDS011;74775;45.476;11.016;2024-02-15T11:27:13;46.30;;;27.00;;
77400;SDS011;74775;45.476;11.016;2024-02-15T11:35:07;39.90;;;24.50;;
77400;SDS011;74775;45.476;11.016;2024-02-15T11:40:21;44.20;;;26.50;;
77400;SDS011;74775;45.476;11.016;2024-02-15T11:42:51;41.90;;;26.40;;
77400;SDS011;74775;45.476;11.016;2024-02-15T11:45:20;41.70;;;26.90;;
77400;SDS011;74775;45.476;11.016;2024-02-15T11:47:48;42.20;;;27.20;;
77400;SDS011;74775;45.476;11.016;2024-02-15T11:50:18;55.00;;;31.00;;
77400;SDS011;74775;45.476;11.016;2024-02-15T11:52:47;46.30;;;27.60;;
77400;SDS011;74775;45.476;11.016;2024-02-15T11:55:20;47.50;;;27.60;;
77400;SDS011;74775;45.476;11.016;2024-02-15T11:57:55;48.70;;;28.20;;
77400;SDS011;74775;45.476;11.016;2024-02-15T12:00:31;45.80;;;27.60;;
77400;SDS011;74775;45.476;11.016;2024-02-15T12:03:18;46.00;;;27.90;;
77400;SDS011;74775;45.476;11.016;2024-02-15T12:06:06;46.40;;;27.20;;
77400;SDS011;74775;45.476;11.016;2024-02-15T12:08:54;43.50;;;26.60;;
77400;SDS011;74775;45.476;11.016;2024-02-15T12:11:40;44.20;;;26.20;;
77400;SDS011;74775;45.476;11.016;2024-02-15T12:14:26;42.40;;;27.00;;
77400;SDS011;74775;45.476;11.016;2024-02-15T12:17:12;40.30;;;25.80;;
77400;SDS011;74775;45.476;11.016;2024-02-15T12:20:00;42.10;;;25.70;;
77400;SDS011;74775;45.476;11.016;2024-02-15T12:22:35;39.10;;;25.70;;
77400;SDS011;74775;45.476;11.016;2024-02-15T12:25:17;42.80;;;26.00;;
77400;SDS011;74775;45.476;11.016;2024-02-15T12:28:06;38.90;;;24.10;;
77400;SDS011;74775;45.476;11.016;2024-02-15T12:30:33;41.50;;;25.20;;
77400;SDS011;74775;45.476;11.016;2024-02-15T12:33:10;38.40;;;24.80;;
77400;SDS011;74775;45.476;11.016;2024-02-15T12:35:39;40.40;;;24.60;;
77400;SDS011;74775;45.476;11.016;2024-02-15T12:38:09;43.70;;;25.60;;
77400;SDS011;74775;45.476;11.016;2024-02-15T12:40:42;41.30;;;25.70;;
77400;SDS011;74775;45.476;11.016;2024-02-15T12:43:14;42.10;;;25.60;;
77400;SDS011;74775;45.476;11.016;2024-02-15T12:45:42;41.60;;;25.60;;
77400;SDS011;74775;45.476;11.016;2024-02-15T12:48:09;44.00;;;27.40;;
77400;SDS011;74775;45.476;11.016;2024-02-15T12:50:42;38.80;;;25.30;;
77400;SDS011;74775;45.476;11.016;2024-02-15T12:53:09;44.60;;;27.70;;
77400;SDS011;74775;45.476;11.016;2024-02-15T12:55:39;46.70;;;30.20;;
77400;SDS011;74775;45.476;11.016;2024-02-15T12:58:07;42.70;;;27.10;;
77400;SDS011;74775;45.476;11.016;2024-02-15T13:00:40;39.00;;;25.20;;
77400;SDS011;74775;45.476;11.016;2024-02-15T13:03:08;42.30;;;26.80;;
77400;SDS011;74775;45.476;11.016;2024-02-15T13:05:37;44.10;;;28.00;;
77400;SDS011;74775;45.476;11.016;2024-02-15T13:08:05;45.80;;;28.30;;
77400;SDS011;74775;45.476;11.016;2024-02-15T13:10:36;51.00;;;28.20;;
77400;SDS011;74775;45.476;11.016;2024-02-15T13:13:06;44.60;;;28.40;;
77400;SDS011;74775;45.476;11.016;2024-02-15T13:15:36;43.70;;;28.70;;
77400;SDS011;74775;45.476;11.016;2024-02-15T13:18:04;46.90;;;30.60;;
77400;SDS011;74775;45.476;11.016;2024-02-15T13:20:32;47.40;;;29.00;;
77400;SDS011;74775;45.476;11.016;2024-02-15T13:23:02;39.30;;;24.80;;
77400;SDS011;74775;45.476;11.016;2024-02-15T13:25:36;39.40;;;25.30;;
77400;SDS011;74775;45.476;11.016;2024-02-15T13:28:04;42.10;;;26.90;;
77400;SDS011;74775;45.476;11.016;2024-02-15T13:30:32;44.40;;;28.60;;
77400;SDS011;74775;45.476;11.016;2024-02-15T13:32:59;48.70;;;30.90;;
77400;SDS011;74775;45.476;11.016;2024-02-15T13:35:26;46.10;;;27.90;;
77400;SDS011;74775;45.476;11.016;2024-02-15T13:37:54;44.70;;;28.90;;
77400;SDS011;74775;45.476;11.016;2024-02-15T13:40:21;45.50;;;30.00;;
77400;SDS011;74775;45.476;11.016;2024-02-15T13:42:51;47.70;;;30.10;;
77400;SDS011;74775;45.476;11.016;2024-02-15T13:45:20;47.00;;;29.80;;
77400;SDS011;74775;45.476;11.016;2024-02-15T13:47:50;51.50;;;31.20;;
77400;SDS011;74775;45.476;11.016;2024-02-15T13:50:23;48.50;;;31.00;;
77400;SDS011;74775;45.476;11.016;2024-02-15T13:52:51;47.00;;;31.00;;
77400;SDS011;74775;45.476;11.016;2024-02-15T13:55:18;49.70;;;32.40;;
77400;SDS011;74775;45.476;11.016;2024-02-15T13:57:47;46.80;;;31.30;;
77400;SDS011;74775;45.476;11.016;2024-02-15T14:00:15;49.90;;;30.90;;
77400;SDS011;74775;45.476;11.016;2024-02-15T14:02:52;52.30;;;33.70;;
77400;SDS011;74775;45.476;11.016;2024-02-15T14:05:21;46.60;;;30.90;;
77400;SDS011;74775;45.476;11.016;2024-02-15T14:07:52;46.60;;;31.20;;
77400;SDS011;74775;45.476;11.016;2024-02-15T14:10:22;46.80;;;29.50;;
77400;SDS011;74775;45.476;11.016;2024-02-15T14:12:49;53.20;;;33.00;;
77400;SDS011;74775;45.476;11.016;2024-02-15T14:15:19;49.10;;;30.10;;
77400;SDS011;74775;45.476;11.016;2024-02-15T14:17:46;51.50;;;33.00;;
77400;SDS011;74775;45.476;11.016;2024-02-15T14:20:13;48.90;;;31.60;;
77400;SDS011;74775;45.476;11.016;2024-02-15T14:22:41;49.80;;;33.00;;
77400;SDS011;74775;45.476;11.016;2024-02-15T14:25:10;49.70;;;31.80;;
77400;SDS011;74775;45.476;11.016;2024-02-15T14:27:39;50.00;;;30.70;;
77400;SDS011;74775;45.476;11.016;2024-02-15T14:30:07;47.90;;;30.90;;
77400;SDS011;74775;45.476;11.016;2024-02-15T14:32:53;50.80;;;31.30;;
77400;SDS011;74775;45.476;11.016;2024-02-15T14:35:36;49.00;;;31.00;;
77400;SDS011;74775;45.476;11.016;2024-02-15T14:38:09;47.90;;;30.70;;
77400;SDS011;74775;45.476;11.016;2024-02-15T14:40:38;48.70;;;31.20;;
77400;SDS011;74775;45.476;11.016;2024-02-15T14:43:09;51.10;;;31.50;;
77400;SDS011;74775;45.476;11.016;2024-02-15T14:45:44;48.20;;;29.90;;
77400;SDS011;74775;45.476;11.016;2024-02-15T14:48:11;46.40;;;30.60;;
77400;SDS011;74775;45.476;11.016;2024-02-15T14:50:40;49.50;;;31.90;;
77400;SDS011;74775;45.476;11.016;2024-02-15T14:53:08;45.50;;;29.90;;